メインページ
METAR-TAF:

METAR-TAF

空港 :

ドゥシャンベ空港

ドゥシャンベ, タジキスタン

緯度: 38-33N, 経度: 068-47E, 海抜: 803m

現時点の気象観測

当レポートは22分前の23:30(UTC)に作成
東/南東の風 2kt
気温 25°C
湿度 39%
気圧 1001 hPa
視程10km以上

METAR: UTDD 162330Z 12001MPS 9999 NSC 25/10 Q1001 R09/D NOSIG RMK QFE683/0911

時間: 04:52 (23:52 UTC)

予報

当レポートは2時間52分前の21:00(UTC)に作成
予報は16日の 22時(UTC)から 17日の 10時(UTC)まで有効
変向風 4kt
視程: 6000m
高度6600ftの雲はほとんどない, 積乱雲.
高度13000ftの雲は散在している
17日の 06時(UTC)から 17日の 10時(UTC)まで一時的に
西の風 10kt

TAF: UTDD 162100Z 1622/1710 VRB02MPS 6000 FEW066CB SCT130 TEMPO 1706/1710 27005MPS

4,000以上の空港の気象観測と天気予報(METAR報とTAF報)

利用可能な観測所は地図上に黄色い丸と赤い丸で示す。

丸の上にカーソルを重ねると観測所名を参照できる。

次にクリックすると気象観測と天気予報を参照できる。

マップの切り替え:黒色「×」印の緑ボタンをクリックして拡大、「-」印の緑ボタンをクリックして縮小、緑色の三角印をクリックして隣りの地図に切り替え


METAR-TAF: